Time;durP1;ratioP1;P1;durP2;ratioP2;P2;SDS_P1;SDS_P2;PMS_P1;PMS_P2;Temp;Humidity;BMP_temperature;BMP_pressure;BME280_temperature;BME280_humidity;BME280_pressure;Samples;Min_cycle;Max_cycle;Signal;HPM_P1;HPM_P2
2021/10/16 00:02:00;;;;;;;14.10;9.35;;;;;;;11.60;65.23;100026.63;5030232;28;20045;-76
2021/10/16 00:04:29;;;;;;;22.13;12.25;;;;;;;11.54;65.29;100024.50;5027498;28;20052;-76
2021/10/16 00:06:55;;;;;;;15.75;9.60;;;;;;;11.57;65.41;100033.97;5027312;28;20037;-76
2021/10/16 00:09:22;;;;;;;18.45;11.90;;;;;;;11.67;65.15;100037.56;5027240;28;20049;-77
2021/10/16 00:11:49;;;;;;;20.55;10.50;;;;;;;11.60;65.40;100039.03;5026726;28;20049;-75
2021/10/16 00:14:16;;;;;;;16.13;12.50;;;;;;;11.60;65.26;100034.56;5028345;28;20501;-76
2021/10/16 00:16:43;;;;;;;18.52;9.75;;;;;;;11.61;65.37;100038.91;5027721;28;20137;-74
2021/10/16 00:19:10;;;;;;;23.38;14.20;;;;;;;11.58;65.25;100033.03;5026299;28;20045;-75
2021/10/16 00:21:38;;;;;;;20.50;10.70;;;;;;;11.56;65.59;100038.44;5028579;28;20053;-76
2021/10/16 00:24:06;;;;;;;18.27;12.20;;;;;;;11.53;65.44;100030.72;5026742;28;20397;-75
2021/10/16 00:26:33;;;;;;;19.02;11.32;;;;;;;11.57;65.29;100036.63;5028331;28;20056;-73
2021/10/16 00:29:00;;;;;;;16.80;9.80;;;;;;;11.65;64.93;100036.84;5029069;28;20056;-75
2021/10/16 00:31:28;;;;;;;18.95;10.32;;;;;;;11.66;64.99;100027.94;5027978;28;20054;-80
2021/10/16 00:33:55;;;;;;;17.77;10.63;;;;;;;11.60;65.15;100031.94;5028594;28;20080;-78
2021/10/16 00:36:22;;;;;;;16.52;10.60;;;;;;;11.60;64.96;100026.63;5028526;28;20052;-76
2021/10/16 00:38:50;;;;;;;17.45;11.25;;;;;;;11.57;65.03;100039.25;5026212;28;20080;-73
2021/10/16 00:41:18;;;;;;;21.15;11.77;;;;;;;11.56;65.14;100041.06;5029364;28;20486;-79
2021/10/16 00:43:45;;;;;;;17.58;9.55;;;;;;;11.62;64.97;100055.63;5029261;28;20050;-77
2021/10/16 00:46:12;;;;;;;12.95;9.60;;;;;;;11.61;65.01;100048.63;5030554;28;20052;-74
2021/10/16 00:48:38;;;;;;;18.08;11.10;;;;;;;11.59;64.96;100054.03;5028569;28;20045;-80
2021/10/16 00:51:05;;;;;;;12.02;8.73;;;;;;;11.62;64.74;100045.88;5027002;28;20150;-75
2021/10/16 00:53:32;;;;;;;14.15;9.75;;;;;;;11.60;64.56;100044.31;5026283;28;20045;-80
2021/10/16 00:56:01;;;;;;;17.38;9.52;;;;;;;11.59;64.63;100046.09;5028094;28;20049;-76
2021/10/16 00:58:28;;;;;;;17.77;7.63;;;;;;;11.62;64.52;100053.81;5027016;28;20045;-76
2021/10/16 01:00:55;;;;;;;19.08;10.05;;;;;;;11.57;64.22;100050.69;5027307;28;20460;-75
2021/10/16 01:03:22;;;;;;;13.85;8.35;;;;;;;11.55;64.41;100057.91;5027791;28;20060;-73
2021/10/16 01:05:49;;;;;;;16.17;8.75;;;;;;;11.56;64.42;100059.59;5028392;28;20123;-73
2021/10/16 01:08:16;;;;;;;16.25;8.05;;;;;;;11.52;64.43;100063.44;5028061;28;20061;-80
2021/10/16 01:10:43;;;;;;;18.42;7.63;;;;;;;11.61;64.07;100057.44;5027936;28;20049;-72
2021/10/16 01:13:12;;;;;;;12.77;6.78;;;;;;;11.70;64.16;100057.63;5027422;28;20045;-76
2021/10/16 01:15:39;;;;;;;9.88;6.63;;;;;;;11.74;63.67;100059.06;5027564;28;20046;-76
2021/10/16 01:18:07;;;;;;;13.93;8.25;;;;;;;11.73;63.83;100066.16;5028709;28;20139;-77
2021/10/16 01:20:39;;;;;;;18.55;7.28;;;;;;;11.76;63.78;100063.28;5028873;28;20049;-74
2021/10/16 01:23:07;;;;;;;14.40;7.82;;;;;;;11.66;63.72;100065.81;5028114;28;20175;-78
2021/10/16 01:25:35;;;;;;;11.13;8.45;;;;;;;11.60;63.88;100061.03;5028440;28;20057;-74
2021/10/16 01:28:02;;;;;;;14.45;5.93;;;;;;;11.66;63.83;100055.22;5031629;28;20041;-78
2021/10/16 01:30:30;;;;;;;16.42;8.27;;;;;;;11.65;63.71;100052.72;5028811;28;20049;-79
2021/10/16 01:32:57;;;;;;;14.95;7.13;;;;;;;11.67;63.84;100066.66;5027289;28;20053;-79
2021/10/16 01:35:24;;;;;;;14.85;6.70;;;;;;;11.68;63.80;100065.69;5027495;28;20060;-72
2021/10/16 01:37:51;;;;;;;14.05;7.53;;;;;;;11.63;63.83;100065.22;5026387;28;20056;-71
2021/10/16 01:40:20;;;;;;;14.90;8.40;;;;;;;11.62;63.95;100066.19;5027731;28;20046;-79
2021/10/16 01:42:49;;;;;;;9.10;6.85;;;;;;;11.69;63.62;100064.75;5029437;28;20516;-80
2021/10/16 01:45:17;;;;;;;13.90;8.00;;;;;;;11.69;63.53;100069.19;5030995;28;20580;-77
2021/10/16 01:47:49;;;;;;;13.98;6.32;;;;;;;11.73;63.32;100070.63;5029331;28;20106;-71
2021/10/16 01:50:16;;;;;;;15.20;7.05;;;;;;;11.74;63.33;100067.00;5029304;28;20052;-74
2021/10/16 01:52:43;;;;;;;10.07;5.93;;;;;;;11.76;63.25;100070.38;5028711;28;20057;-79
2021/10/16 01:55:10;;;;;;;20.45;6.38;;;;;;;11.63;63.20;100062.56;5027951;28;20057;-79
2021/10/16 01:57:39;;;;;;;15.13;7.57;;;;;;;11.67;63.08;100075.44;5028436;28;20048;-78
2021/10/16 02:00:09;;;;;;;18.17;7.18;;;;;;;11.73;62.99;100075.91;5029394;28;20056;-77
2021/10/16 02:02:36;;;;;;;12.13;6.57;;;;;;;11.76;62.77;100073.88;5030020;28;20050;-77
2021/10/16 02:05:05;;;;;;;14.00;6.93;;;;;;;11.72;62.86;100074.22;5028948;28;20421;-77
2021/10/16 02:07:32;;;;;;;10.35;6.32;;;;;;;11.71;62.76;100086.63;5028013;28;20049;-75
2021/10/16 02:09:59;;;;;;;9.85;6.47;;;;;;;11.77;62.83;100082.63;5036965;28;20025;-76
2021/10/16 02:12:27;;;;;;;9.63;6.10;;;;;;;11.71;62.74;100083.13;5036615;28;20095;-74
2021/10/16 02:14:56;;;;;;;12.13;5.88;;;;;;;11.72;62.59;100090.09;5035726;28;20050;-79
2021/10/16 02:17:22;;;;;;;11.68;6.00;;;;;;;11.74;62.63;100093.47;5027952;28;20072;-72
2021/10/16 02:19:49;;;;;;;10.15;4.38;;;;;;;11.76;62.45;100091.56;5027833;28;20045;-77
2021/10/16 02:22:16;;;;;;;11.75;5.53;;;;;;;11.79;62.50;100101.88;5027400;28;20048;-75
2021/10/16 02:24:43;;;;;;;11.45;7.13;;;;;;;11.71;62.33;100096.38;5026742;28;20052;-76
2021/10/16 02:27:10;;;;;;;11.20;5.55;;;;;;;11.76;62.20;100102.13;5026757;28;20049;-76
2021/10/16 02:29:37;;;;;;;10.85;6.25;;;;;;;11.77;61.99;100103.81;5026819;28;20045;-80
2021/10/16 02:32:06;;;;;;;17.77;6.38;;;;;;;11.72;62.05;100111.25;5027388;28;20053;-79
2021/10/16 02:34:35;;;;;;;9.30;6.15;;;;;;;11.72;62.03;100111.25;5029094;28;20476;-78
2021/10/16 02:37:03;;;;;;;9.68;5.78;;;;;;;11.73;61.73;100115.59;5028586;28;20056;-72
2021/10/16 02:39:30;;;;;;;11.90;4.70;;;;;;;11.70;61.75;100119.31;5030580;28;20075;-72
2021/10/16 02:41:58;;;;;;;11.25;5.00;;;;;;;11.80;61.73;100116.81;5030861;28;20060;-71
2021/10/16 02:44:25;;;;;;;8.18;5.65;;;;;;;11.81;61.66;100110.53;5029993;28;20435;-71
2021/10/16 02:46:52;;;;;;;18.95;7.18;;;;;;;11.81;61.57;100127.25;5029477;28;20052;-76
2021/10/16 02:49:20;;;;;;;10.80;5.35;;;;;;;11.71;61.68;100126.31;5030012;28;20045;-71
2021/10/16 02:51:47;;;;;;;13.63;5.95;;;;;;;11.75;61.56;100132.19;5030201;28;20049;-72
2021/10/16 02:54:15;;;;;;;9.77;6.15;;;;;;;11.80;61.60;100130.88;5031945;28;20065;-71
2021/10/16 02:56:42;;;;;;;7.50;4.43;;;;;;;11.78;61.50;100127.50;5031355;28;20053;-80
2021/10/16 02:59:09;;;;;;;15.45;6.25;;;;;;;11.85;61.49;100127.88;5036283;28;20045;-79
2021/10/16 03:01:36;;;;;;;12.77;5.70;;;;;;;11.88;61.39;100116.19;5034031;28;20056;-78
2021/10/16 03:04:03;;;;;;;12.52;6.22;;;;;;;11.76;61.34;100120.66;5034255;28;20046;-77
2021/10/16 03:06:31;;;;;;;6.88;4.90;;;;;;;11.80;61.38;100127.38;5036618;28;20061;-79
2021/10/16 03:08:58;;;;;;;11.18;5.70;;;;;;;11.67;61.44;100120.41;5029714;28;20413;-77
2021/10/16 03:11:25;;;;;;;15.95;5.70;;;;;;;11.73;61.39;100123.53;5035960;28;20045;-71
2021/10/16 03:13:52;;;;;;;11.43;5.85;;;;;;;11.80;61.57;100124.75;5030711;28;20489;-76
2021/10/16 03:16:19;;;;;;;7.18;4.90;;;;;;;11.80;61.25;100124.75;5027285;28;20042;-74
2021/10/16 03:18:48;;;;;;;10.90;4.63;;;;;;;11.82;61.37;100128.09;5029097;28;20084;-76
2021/10/16 03:21:15;;;;;;;11.18;5.35;;;;;;;11.82;61.35;100133.38;5027898;28;20155;-74
2021/10/16 03:23:43;;;;;;;12.20;6.00;;;;;;;11.71;61.42;100136.88;5029008;28;20686;-73
2021/10/16 03:26:10;;;;;;;14.75;5.57;;;;;;;11.76;61.28;100133.88;5037235;28;20050;-75
2021/10/16 03:28:37;;;;;;;10.85;5.97;;;;;;;11.72;61.23;100135.06;5040062;28;20053;-73
2021/10/16 03:31:04;;;;;;;9.80;4.88;;;;;;;11.78;61.22;100142.53;5042172;28;20056;-72
2021/10/16 03:33:31;;;;;;;14.25;6.07;;;;;;;11.78;60.79;100139.91;5041335;28;20060;-75
2021/10/16 03:35:58;;;;;;;8.10;4.15;;;;;;;11.76;60.79;100142.66;5040334;28;20040;-74
2021/10/16 03:38:24;;;;;;;12.07;4.28;;;;;;;11.81;60.82;100150.22;5040679;28;20045;-72
2021/10/16 03:40:53;;;;;;;13.27;7.25;;;;;;;11.81;60.57;100148.44;5042460;28;20110;-71
2021/10/16 03:43:20;;;;;;;11.73;6.07;;;;;;;11.79;60.29;100154.78;5034413;28;20084;-79
2021/10/16 03:45:47;;;;;;;15.82;6.50;;;;;;;11.73;60.38;100160.59;5031879;28;20045;-72
2021/10/16 03:48:14;;;;;;;11.57;5.30;;;;;;;11.73;60.24;100165.88;5032098;28;20042;-73
2021/10/16 03:50:40;;;;;;;11.32;5.07;;;;;;;11.83;60.24;100166.84;5032403;28;20041;-72
2021/10/16 03:53:07;;;;;;;12.77;7.97;;;;;;;11.89;60.02;100162.88;5032204;28;20052;-77
2021/10/16 03:55:34;;;;;;;9.55;4.70;;;;;;;11.94;60.13;100168.63;5033544;28;20042;-72
2021/10/16 03:58:03;;;;;;;12.20;6.53;;;;;;;11.93;60.02;100167.81;5033060;28;20045;-73
2021/10/16 04:00:31;;;;;;;12.25;6.72;;;;;;;11.95;60.05;100162.41;5030475;28;20042;-76
2021/10/16 04:03:03;;;;;;;11.10;5.22;;;;;;;11.98;60.16;100165.63;5030481;28;20080;-76
2021/10/16 04:05:30;;;;;;;14.07;6.38;;;;;;;11.95;60.17;100160.59;5031083;28;20058;-76
2021/10/16 04:07:57;;;;;;;14.52;6.80;;;;;;;11.91;60.20;100158.31;5035487;28;20493;-75
2021/10/16 04:10:24;;;;;;;13.88;5.43;;;;;;;11.95;60.26;100171.16;5028479;28;20045;-72
2021/10/16 04:12:51;;;;;;;11.98;5.57;;;;;;;12.02;60.28;100167.06;5027943;28;20382;-76
2021/10/16 04:15:19;;;;;;;12.50;6.53;;;;;;;12.04;60.02;100167.78;5028148;28;20046;-76
2021/10/16 04:17:46;;;;;;;13.30;5.97;;;;;;;12.02;60.09;100164.41;5027844;28;20049;-71
2021/10/16 04:20:13;;;;;;;11.35;6.45;;;;;;;12.00;60.16;100173.47;5027624;28;20045;-75
2021/10/16 04:22:40;;;;;;;10.80;6.22;;;;;;;12.01;60.17;100175.13;5029409;28;20630;-76
2021/10/16 04:25:08;;;;;;;12.55;6.22;;;;;;;12.03;60.08;100182.00;5027802;28;20068;-79
2021/10/16 04:27:36;;;;;;;11.20;5.80;;;;;;;12.07;60.03;100173.81;5029206;28;20049;-75
2021/10/16 04:30:03;;;;;;;18.33;7.22;;;;;;;11.92;59.68;100173.22;5029156;28;20494;-74
2021/10/16 04:32:35;;;;;;;12.63;7.72;;;;;;;11.84;60.16;100169.34;5048073;28;20496;-76
2021/10/16 04:35:03;;;;;;;16.13;7.38;;;;;;;11.78;60.23;100179.59;5047867;28;20068;-78
2021/10/16 04:37:29;;;;;;;13.73;6.28;;;;;;;11.78;60.15;100183.06;5047507;28;20041;-76
2021/10/16 04:39:56;;;;;;;15.15;7.10;;;;;;;11.78;60.14;100182.25;5048696;28;20135;-73
2021/10/16 04:42:23;;;;;;;17.35;5.75;;;;;;;11.76;60.09;100185.00;5047795;28;20456;-72
2021/10/16 04:44:50;;;;;;;12.60;5.70;;;;;;;11.78;60.14;100185.72;5047678;28;20635;-76
2021/10/16 04:47:18;;;;;;;13.00;5.95;;;;;;;11.85;60.01;100186.09;5047565;28;20056;-78
2021/10/16 04:49:46;;;;;;;9.05;5.40;;;;;;;11.90;59.93;100191.00;5048468;28;20045;-74
2021/10/16 04:52:13;;;;;;;15.70;7.07;;;;;;;11.86;59.99;100187.75;5047353;28;20102;-75
2021/10/16 04:54:40;;;;;;;14.35;7.03;;;;;;;11.82;59.89;100192.44;5047146;28;20493;-77
2021/10/16 04:57:07;;;;;;;22.67;12.38;;;;;;;11.69;59.78;100191.72;5046353;28;20158;-79
2021/10/16 04:59:34;;;;;;;17.20;9.38;;;;;;;11.64;59.72;100204.47;5047284;28;20508;-81
2021/10/16 05:02:02;;;;;;;16.33;8.70;;;;;;;11.50;59.72;100202.06;5047439;28;20554;-78
2021/10/16 05:04:29;;;;;;;18.90;7.43;;;;;;;11.41;59.75;100198.31;5046901;28;20513;-79
2021/10/16 05:06:57;;;;;;;16.00;6.63;;;;;;;11.43;59.67;100199.03;5045129;28;20060;-76
2021/10/16 05:09:24;;;;;;;21.33;9.43;;;;;;;11.48;59.64;100200.34;5050325;28;20063;-81
2021/10/16 05:11:51;;;;;;;13.68;6.78;;;;;;;11.37;59.76;100197.69;5048251;28;20051;-78
2021/10/16 05:14:18;;;;;;;14.50;7.32;;;;;;;11.47;59.75;100203.16;5047502;28;20057;-80
2021/10/16 05:16:45;;;;;;;12.68;6.13;;;;;;;11.46;59.69;100196.16;5048377;28;20056;-77
2021/10/16 05:19:12;;;;;;;19.00;8.20;;;;;;;11.43;59.74;100201.66;5046570;28;20190;-78
2021/10/16 05:21:39;;;;;;;16.35;7.35;;;;;;;11.36;60.02;100200.47;5048276;28;20048;-79
2021/10/16 05:24:09;;;;;;;18.23;7.75;;;;;;;11.42;59.77;100200.84;5047458;28;20044;-78
2021/10/16 05:26:36;;;;;;;23.35;9.95;;;;;;;11.36;59.81;100216.31;5047082;28;20425;-77
2021/10/16 05:29:03;;;;;;;10.30;6.75;;;;;;;11.29;60.10;100213.34;5048021;28;20041;-78
2021/10/16 05:31:30;;;;;;;14.32;7.82;;;;;;;11.33;59.99;100217.41;5044809;28;20049;-78
2021/10/16 05:34:01;;;;;;;13.98;9.50;;;;;;;11.24;60.51;100224.25;5049837;28;20053;-79
2021/10/16 05:36:28;;;;;;;23.00;9.35;;;;;;;11.21;60.50;100227.09;5047751;28;20099;-76
2021/10/16 05:38:58;;;;;;;14.98;8.10;;;;;;;11.35;60.29;100225.25;5046249;28;20049;-76
2021/10/16 05:41:29;;;;;;;21.23;7.90;;;;;;;11.36;60.13;100226.91;5047556;28;20041;-79
2021/10/16 05:43:58;;;;;;;17.08;8.52;;;;;;;11.25;60.20;100231.22;5048521;28;20053;-77
2021/10/16 05:46:25;;;;;;;19.05;8.98;;;;;;;11.25;60.32;100235.66;5057745;28;20041;-78
2021/10/16 05:48:52;;;;;;;17.23;7.20;;;;;;;11.37;60.00;100236.53;5056698;28;20053;-73
2021/10/16 05:51:19;;;;;;;15.20;7.32;;;;;;;11.48;59.93;100240.03;5049645;28;20037;-82
2021/10/16 05:53:46;;;;;;;14.63;8.82;;;;;;;11.53;59.82;100246.78;5050507;28;20060;-71
2021/10/16 05:56:14;;;;;;;18.23;7.35;;;;;;;11.48;60.11;100253.25;5048835;28;20051;-81
2021/10/16 05:58:42;;;;;;;15.95;7.97;;;;;;;11.57;60.13;100256.16;5048540;28;20087;-81
2021/10/16 06:01:12;;;;;;;21.08;8.15;;;;;;;11.70;59.85;100256.06;5047836;28;20048;-72
2021/10/16 06:03:39;;;;;;;15.57;7.30;;;;;;;11.72;59.88;100262.06;5045127;28;20481;-74
2021/10/16 06:06:06;;;;;;;16.63;8.13;;;;;;;11.70;59.90;100256.91;5049410;28;20532;-79
2021/10/16 06:08:33;;;;;;;18.38;7.50;;;;;;;11.80;59.84;100263.16;5046871;28;20051;-78
2021/10/16 06:11:00;;;;;;;20.58;8.50;;;;;;;11.71;59.66;100269.19;5052882;28;20037;-74
2021/10/16 06:13:31;;;;;;;23.75;10.05;;;;;;;11.59;60.10;100267.47;5052427;28;20254;-80
2021/10/16 06:15:59;;;;;;;19.00;8.50;;;;;;;11.59;60.02;100276.25;5053072;28;20049;-81
2021/10/16 06:18:28;;;;;;;15.88;8.65;;;;;;;11.60;59.99;100277.94;5050350;28;20056;-77
2021/10/16 06:20:55;;;;;;;16.63;8.57;;;;;;;11.64;59.91;100279.38;5046920;28;20040;-75
2021/10/16 06:23:22;;;;;;;20.40;10.00;;;;;;;11.64;60.05;100284.66;5050705;28;20051;-72
2021/10/16 06:25:49;;;;;;;19.95;8.35;;;;;;;11.65;60.11;100281.06;5049136;28;20408;-75
2021/10/16 06:28:17;;;;;;;15.90;8.95;;;;;;;11.60;60.14;100290.34;5048108;28;20048;-80
2021/10/16 06:30:45;;;;;;;12.77;7.85;;;;;;;11.58;60.04;100285.16;5048823;28;20059;-83
2021/10/16 06:33:13;;;;;;;13.75;8.18;;;;;;;11.59;59.90;100291.28;5049217;28;20055;-76
2021/10/16 06:35:43;;;;;;;15.10;6.55;;;;;;;11.58;60.26;100294.91;5050433;28;20056;-78
2021/10/16 06:38:11;;;;;;;17.17;7.60;;;;;;;11.57;60.35;100294.03;5048493;28;20053;-72
2021/10/16 06:40:38;;;;;;;13.75;7.30;;;;;;;11.72;59.95;100305.28;5050979;28;20052;-81
2021/10/16 06:43:05;;;;;;;26.98;9.73;;;;;;;11.72;59.89;100301.75;5049487;28;20057;-74
2021/10/16 06:45:32;;;;;;;24.83;8.18;;;;;;;11.83;59.90;100309.75;5052440;28;20057;-73
2021/10/16 06:47:59;;;;;;;12.23;8.18;;;;;;;11.79;59.76;100302.97;5049225;28;20053;-73
2021/10/16 06:50:28;;;;;;;15.32;9.13;;;;;;;11.96;59.54;100309.66;5051023;28;20068;-76
2021/10/16 06:52:54;;;;;;;15.57;9.10;;;;;;;12.17;59.19;100315.06;5052828;28;20049;-73
2021/10/16 06:55:22;;;;;;;19.98;9.77;;;;;;;12.20;58.75;100313.03;5049994;28;20041;-76
2021/10/16 06:57:49;;;;;;;23.45;10.38;;;;;;;12.28;58.70;100308.94;5047672;28;20047;-75
2021/10/16 07:00:16;;;;;;;14.43;7.75;;;;;;;12.20;58.56;100312.19;5052469;28;20048;-80
2021/10/16 07:02:42;;;;;;;14.95;7.57;;;;;;;12.12;58.61;100312.81;5056576;28;20056;-75
2021/10/16 07:05:10;;;;;;;26.08;11.23;;;;;;;12.00;58.51;100311.09;5060261;28;20049;-74
2021/10/16 07:07:44;;;;;;;12.88;8.05;;;;;;;11.92;59.01;100316.13;5056501;28;20143;-82
2021/10/16 07:10:11;;;;;;;13.85;7.97;;;;;;;11.92;59.00;100324.94;5060520;28;20048;-74
2021/10/16 07:12:42;;;;;;;18.10;9.32;;;;;;;11.89;58.81;100321.66;5065033;28;20137;-75
2021/10/16 07:15:11;;;;;;;16.85;8.35;;;;;;;11.86;58.98;100326.19;5064576;28;20041;-71
2021/10/16 07:17:38;;;;;;;17.77;8.88;;;;;;;11.89;58.81;100327.78;5054839;28;20053;-80
2021/10/16 07:20:07;;;;;;;24.00;9.85;;;;;;;12.01;58.98;100321.59;5054853;28;20041;-83
2021/10/16 07:22:34;;;;;;;19.23;11.30;;;;;;;11.93;58.06;100310.72;5052573;28;20045;-79
2021/10/16 07:25:05;;;;;;;15.00;6.65;;;;;;;12.00;58.21;100333.13;5054365;28;20059;-73
2021/10/16 07:27:32;;;;;;;17.38;9.48;;;;;;;12.01;57.04;100339.25;5050522;28;20057;-77
2021/10/16 07:29:59;;;;;;;19.20;9.02;;;;;;;12.23;56.83;100338.44;5057838;28;20299;-82
2021/10/16 07:32:26;;;;;;;22.60;11.15;;;;;;;12.34;56.45;100340.25;5057995;28;20044;-72
2021/10/16 07:34:53;;;;;;;19.23;8.48;;;;;;;12.41;56.08;100341.47;5061002;28;20048;-82
2021/10/16 07:37:20;;;;;;;12.35;7.32;;;;;;;12.54;55.71;100343.97;5060801;28;20045;-78
2021/10/16 07:39:47;;;;;;;14.20;6.90;;;;;;;12.67;54.88;100347.31;5062703;28;20041;-75
2021/10/16 07:42:15;;;;;;;15.93;7.63;;;;;;;12.45;54.04;100347.34;5063473;28;20075;-73
2021/10/16 07:44:42;;;;;;;20.05;7.95;;;;;;;12.27;54.71;100350.47;5065508;28;20067;-77
2021/10/16 07:47:09;;;;;;;29.70;9.30;;;;;;;12.20;54.98;100354.56;5067630;28;20063;-80
2021/10/16 07:49:36;;;;;;;14.82;7.05;;;;;;;12.11;55.04;100355.28;5063787;28;20059;-71
2021/10/16 07:52:03;;;;;;;14.90;6.93;;;;;;;12.26;55.39;100363.84;5064902;28;20113;-76
2021/10/16 07:54:30;;;;;;;18.48;7.85;;;;;;;12.35;55.26;100365.75;5067345;28;20136;-76
2021/10/16 07:57:01;;;;;;;16.05;6.63;;;;;;;12.48;55.44;100374.44;5065371;28;20036;-75
2021/10/16 07:59:29;;;;;;;16.25;9.63;;;;;;;12.64;54.68;100366.13;5063364;28;20047;-77
2021/10/16 08:01:56;;;;;;;24.00;9.98;;;;;;;12.72;54.91;100370.81;5061601;28;20056;-83
2021/10/16 08:04:23;;;;;;;19.05;7.97;;;;;;;12.78;54.93;100373.84;5059483;28;20528;-78
2021/10/16 08:06:50;;;;;;;23.88;13.27;;;;;;;12.52;55.11;100369.75;5054165;28;20171;-75
2021/10/16 08:09:18;;;;;;;16.70;6.40;;;;;;;12.31;55.66;100383.69;5056570;28;20600;-74
2021/10/16 08:11:45;;;;;;;18.98;10.98;;;;;;;12.34;55.60;100380.81;5062669;28;20044;-78
2021/10/16 08:14:12;;;;;;;15.70;7.88;;;;;;;12.36;55.74;100391.28;5063609;28;20055;-83
2021/10/16 08:16:40;;;;;;;14.98;7.38;;;;;;;12.44;54.91;100394.16;5063375;28;20060;-73
2021/10/16 08:19:07;;;;;;;11.38;4.45;;;;;;;12.39;54.61;100391.06;5062427;28;20045;-81
2021/10/16 08:21:35;;;;;;;22.30;7.30;;;;;;;12.43;54.75;100392.50;5064267;28;20043;-77
2021/10/16 08:24:02;;;;;;;14.35;5.43;;;;;;;12.56;54.38;100392.38;5063837;28;20618;-80
2021/10/16 08:26:29;;;;;;;10.18;4.53;;;;;;;12.82;53.71;100388.50;5051030;28;20049;-84
2021/10/16 08:28:56;;;;;;;20.23;6.65;;;;;;;13.05;52.87;100383.16;5048026;28;20049;-76
2021/10/16 08:31:23;;;;;;;20.20;6.30;;;;;;;13.05;52.48;100384.97;5046501;28;20658;-79
2021/10/16 08:33:51;;;;;;;23.20;7.40;;;;;;;12.91;52.44;100386.94;5046802;28;20053;-82
2021/10/16 08:36:18;;;;;;;16.85;6.05;;;;;;;12.87;52.68;100389.94;5051947;28;20053;-80
2021/10/16 08:38:45;;;;;;;19.35;8.85;;;;;;;12.73;52.75;100383.09;5047100;28;20044;-83
2021/10/16 08:41:13;;;;;;;23.45;9.07;;;;;;;12.70;53.20;100397.44;5046910;28;20601;-75
2021/10/16 08:43:41;;;;;;;12.25;5.40;;;;;;;12.98;53.17;100395.22;5047607;28;20045;-78
2021/10/16 08:46:09;;;;;;;20.42;9.65;;;;;;;12.98;52.43;100387.28;5044263;28;20045;-74
2021/10/16 08:48:40;;;;;;;14.50;6.00;;;;;;;12.95;52.81;100392.84;5046661;28;20068;-81
2021/10/16 08:51:09;;;;;;;15.95;8.07;;;;;;;13.34;52.31;100403.84;5045149;28;20111;-76
2021/10/16 08:53:36;;;;;;;20.90;8.00;;;;;;;13.71;51.91;100392.88;5042155;28;20103;-75
2021/10/16 08:56:05;;;;;;;12.52;7.20;;;;;;;13.53;51.25;100401.38;5043512;28;20048;-73
2021/10/16 08:58:32;;;;;;;21.67;7.85;;;;;;;13.48;51.44;100405.38;5040247;28;20106;-76
2021/10/16 09:01:01;;;;;;;13.85;7.63;;;;;;;13.47;51.11;100403.69;5041642;28;20090;-71
2021/10/16 09:03:31;;;;;;;13.77;6.75;;;;;;;13.54;51.36;100402.22;5045737;28;20045;-74
2021/10/16 09:06:14;;;;;;;28.65;9.80;;;;;;;13.53;51.76;100403.19;5043050;28;20051;-76
2021/10/16 09:08:45;;;;;;;20.13;9.30;;;;;;;13.69;51.48;100413.38;5041515;28;20051;-81
2021/10/16 09:11:17;;;;;;;24.52;10.80;;;;;;;13.71;51.32;100414.09;5040303;28;20037;-80
2021/10/16 09:13:47;;;;;;;17.65;9.98;;;;;;;13.47;51.47;100419.59;5047633;28;20045;-74
2021/10/16 09:16:25;;;;;;;25.50;12.05;;;;;;;13.16;52.56;100414.97;5044071;28;20045;-86
2021/10/16 09:18:58;;;;;;;18.42;10.65;;;;;;;13.06;52.93;100416.69;5041375;28;20053;-72
2021/10/16 09:21:28;;;;;;;14.93;8.32;;;;;;;13.25;52.76;100423.97;5049296;28;20480;-77
2021/10/16 09:24:10;;;;;;;15.52;5.80;;;;;;;13.60;52.36;100417.66;5043849;28;20472;-81
2021/10/16 09:26:39;;;;;;;9.38;5.63;;;;;;;13.80;51.92;100426.59;5049769;28;20059;-74
2021/10/16 09:29:09;;;;;;;14.98;6.70;;;;;;;13.95;51.36;100420.03;5051276;28;20055;-76
2021/10/16 09:31:39;;;;;;;19.80;7.47;;;;;;;14.09;51.18;100425.97;5051546;28;20489;-83
2021/10/16 09:34:06;;;;;;;16.35;7.68;;;;;;;14.34;50.74;100427.38;5045116;28;20041;-84
2021/10/16 09:36:36;;;;;;;19.98;8.20;;;;;;;14.32;49.58;100432.00;5050928;28;20045;-84
2021/10/16 09:39:05;;;;;;;17.52;7.20;;;;;;;13.80;50.18;100431.91;5043508;28;20044;-79
2021/10/16 09:41:35;;;;;;;27.85;10.32;;;;;;;13.54;51.34;100437.56;5042369;28;20044;-72
2021/10/16 09:44:04;;;;;;;11.50;6.57;;;;;;;13.70;51.22;100438.94;5041354;28;20087;-71
2021/10/16 09:46:31;;;;;;;16.10;5.35;;;;;;;13.72;50.71;100439.66;5039671;28;20477;-70
2021/10/16 09:49:08;;;;;;;21.05;8.02;;;;;;;13.63;50.70;100441.28;5039401;28;20060;-70
2021/10/16 09:51:51;;;;;;;23.27;8.63;;;;;;;13.57;50.94;100439.94;5038883;28;20053;-71
2021/10/16 09:54:20;;;;;;;15.13;5.88;;;;;;;13.73;50.38;100431.56;5021160;28;20140;-72
2021/10/16 09:56:47;;;;;;;11.60;4.15;;;;;;;13.93;50.23;100443.19;5018327;28;20048;-70
2021/10/16 09:59:17;;;;;;;12.60;4.45;;;;;;;14.20;49.97;100436.53;5019672;28;20057;-70
2021/10/16 10:01:45;;;;;;;11.50;5.70;;;;;;;14.22;49.94;100445.19;5018315;28;20112;-70
2021/10/16 10:04:12;;;;;;;11.88;4.15;;;;;;;14.29;50.04;100437.56;5019771;28;20670;-72
2021/10/16 10:06:42;;;;;;;18.48;7.97;;;;;;;14.11;49.66;100434.66;5019176;28;20056;-69
2021/10/16 10:09:11;;;;;;;14.30;7.10;;;;;;;13.85;50.05;100442.16;5018187;28;20053;-70
2021/10/16 10:11:39;;;;;;;11.77;6.82;;;;;;;13.68;50.58;100432.91;5018769;28;20049;-70
2021/10/16 10:14:08;;;;;;;17.77;7.80;;;;;;;13.42;51.23;100443.03;5019085;28;20060;-70
2021/10/16 10:16:38;;;;;;;7.65;4.63;;;;;;;13.38;51.89;100458.38;5018332;28;20603;-70
2021/10/16 10:19:06;;;;;;;11.52;5.07;;;;;;;13.47;51.07;100449.66;5019626;28;20049;-70
2021/10/16 10:21:36;;;;;;;15.43;8.38;;;;;;;13.55;50.89;100443.72;5018915;28;20652;-70
2021/10/16 10:24:06;;;;;;;18.52;6.60;;;;;;;13.60;51.11;100449.50;5032467;28;20046;-71
2021/10/16 10:26:34;;;;;;;15.82;6.70;;;;;;;13.52;50.65;100439.50;5031739;28;20043;-70
2021/10/16 10:29:04;;;;;;;19.60;7.47;;;;;;;13.45;51.07;100442.78;5023757;28;20064;-71
2021/10/16 10:31:56;;;;;;;12.73;6.25;;;;;;;13.49;51.34;100445.06;5018233;28;20052;-70
2021/10/16 10:34:25;;;;;;;13.25;7.18;;;;;;;13.72;50.97;100456.44;5020391;28;20049;-69
2021/10/16 10:36:53;;;;;;;15.60;6.55;;;;;;;13.88;50.46;100439.22;5018722;28;20418;-70
2021/10/16 10:39:56;;;;;;;12.32;5.78;;;;;;;14.02;50.34;100438.91;5017306;28;20045;-71
2021/10/16 10:42:43;;;;;;;15.65;6.60;;;;;;;14.00;49.69;100446.19;5019584;28;20053;-69
2021/10/16 10:45:40;;;;;;;18.35;6.43;;;;;;;13.95;49.55;100433.31;5020093;28;20053;-71
2021/10/16 10:48:12;;;;;;;13.85;6.20;;;;;;;13.64;50.16;100447.44;5018878;28;20140;-70
2021/10/16 10:50:46;;;;;;;11.77;5.38;;;;;;;13.51;50.82;100437.81;5019838;28;20060;-70
2021/10/16 10:53:23;;;;;;;10.13;5.55;;;;;;;13.76;50.53;100436.63;5021397;28;20054;-71
2021/10/16 10:55:51;;;;;;;11.73;6.70;;;;;;;13.67;49.97;100431.25;5024511;28;20049;-70
2021/10/16 10:58:20;;;;;;;11.57;6.57;;;;;;;13.71;49.91;100438.81;5022947;28;20081;-72
2021/10/16 11:00:47;;;;;;;14.18;5.90;;;;;;;13.75;49.90;100439.41;5024053;28;20046;-72
2021/10/16 11:03:45;;;;;;;14.48;6.65;;;;;;;13.73;49.52;100438.69;5023095;28;20160;-70
2021/10/16 11:06:18;;;;;;;12.90;6.72;;;;;;;13.66;49.98;100442.81;5021782;28;20594;-71
2021/10/16 11:08:48;;;;;;;18.70;6.85;;;;;;;13.60;49.65;100438.03;5021545;28;20049;-69
2021/10/16 11:11:15;;;;;;;15.95;6.18;;;;;;;13.53;50.15;100441.19;5022144;28;20049;-69
2021/10/16 11:13:45;;;;;;;12.80;6.20;;;;;;;13.85;49.70;100435.03;5021300;28;20618;-68
2021/10/16 11:16:12;;;;;;;12.77;5.25;;;;;;;14.06;49.21;100431.53;5040769;28;20053;-67
2021/10/16 11:18:39;;;;;;;17.42;6.47;;;;;;;14.25;49.00;100444.13;5041970;28;20401;-67
2021/10/16 11:21:09;;;;;;;16.17;7.72;;;;;;;14.42;48.86;100442.66;5041143;28;20486;-68
2021/10/16 11:23:39;;;;;;;17.65;6.68;;;;;;;14.26;48.61;100443.13;5042462;28;20051;-72